sensor_id;sensor_type;location;lat;lon;timestamp;pressure;altitude;pressure_sealevel;temperature;humidity
21728;BME280;11026;50.560;17.852;2022-08-21T00:01:25;99151.75;;;20.56;100.00
21728;BME280;11026;50.560;17.852;2022-08-21T00:03:56;99157.41;;;20.53;100.00
21728;BME280;11026;50.560;17.852;2022-08-21T00:06:29;99145.25;;;20.49;100.00
21728;BME280;11026;50.560;17.852;2022-08-21T00:09:15;99151.34;;;20.60;100.00
21728;BME280;11026;50.560;17.852;2022-08-21T00:11:46;99140.31;;;20.63;100.00
21728;BME280;11026;50.560;17.852;2022-08-21T00:14:17;99141.97;;;20.55;100.00
21728;BME280;11026;50.560;17.852;2022-08-21T00:16:45;99133.91;;;20.55;100.00
21728;BME280;11026;50.560;17.852;2022-08-21T00:19:16;99132.31;;;20.43;100.00
21728;BME280;11026;50.560;17.852;2022-08-21T00:21:55;99135.88;;;20.43;100.00
21728;BME280;11026;50.560;17.852;2022-08-21T00:24:38;99130.28;;;20.56;100.00
21728;BME280;11026;50.560;17.852;2022-08-21T00:27:19;99122.91;;;20.58;100.00
21728;BME280;11026;50.560;17.852;2022-08-21T00:29:46;99112.44;;;20.55;100.00
21728;BME280;11026;50.560;17.852;2022-08-21T00:32:20;99109.47;;;20.58;100.00
21728;BME280;11026;50.560;17.852;2022-08-21T00:34:56;99106.19;;;20.45;100.00
21728;BME280;11026;50.560;17.852;2022-08-21T00:37:24;99109.03;;;20.53;100.00
21728;BME280;11026;50.560;17.852;2022-08-21T00:39:52;99115.81;;;20.47;100.00
21728;BME280;11026;50.560;17.852;2022-08-21T00:42:22;99119.63;;;20.45;100.00
21728;BME280;11026;50.560;17.852;2022-08-21T00:45:07;99118.38;;;20.49;100.00
21728;BME280;11026;50.560;17.852;2022-08-21T00:47:40;99105.78;;;20.49;100.00
21728;BME280;11026;50.560;17.852;2022-08-21T00:50:10;99095.72;;;20.32;100.00
21728;BME280;11026;50.560;17.852;2022-08-21T00:52:50;99098.81;;;20.47;100.00
21728;BME280;11026;50.560;17.852;2022-08-21T00:55:20;99100.97;;;20.43;100.00
21728;BME280;11026;50.560;17.852;2022-08-21T00:57:51;99094.88;;;20.51;100.00
21728;BME280;11026;50.560;17.852;2022-08-21T01:00:50;99085.72;;;20.53;100.00
21728;BME280;11026;50.560;17.852;2022-08-21T01:03:23;99095.44;;;20.45;100.00
21728;BME280;11026;50.560;17.852;2022-08-21T01:05:54;99096.44;;;20.44;100.00
21728;BME280;11026;50.560;17.852;2022-08-21T01:08:29;99093.63;;;20.55;100.00
21728;BME280;11026;50.560;17.852;2022-08-21T01:10:58;99087.56;;;20.53;100.00
21728;BME280;11026;50.560;17.852;2022-08-21T01:13:38;99078.66;;;20.52;100.00
21728;BME280;11026;50.560;17.852;2022-08-21T01:16:13;99088.13;;;20.56;100.00
21728;BME280;11026;50.560;17.852;2022-08-21T01:18:47;99083.59;;;20.57;100.00
21728;BME280;11026;50.560;17.852;2022-08-21T01:21:24;99070.53;;;20.43;100.00
21728;BME280;11026;50.560;17.852;2022-08-21T01:23:56;99074.22;;;20.42;100.00
21728;BME280;11026;50.560;17.852;2022-08-21T01:26:32;99077.22;;;20.48;100.00
21728;BME280;11026;50.560;17.852;2022-08-21T01:29:22;99081.00;;;20.46;100.00
21728;BME280;11026;50.560;17.852;2022-08-21T01:31:58;99080.31;;;20.44;100.00
21728;BME280;11026;50.560;17.852;2022-08-21T01:34:25;99073.69;;;20.48;100.00
21728;BME280;11026;50.560;17.852;2022-08-21T01:36:56;99064.31;;;20.42;100.00
21728;BME280;11026;50.560;17.852;2022-08-21T01:39:49;99056.44;;;20.50;100.00
21728;BME280;11026;50.560;17.852;2022-08-21T01:42:16;99046.81;;;20.48;100.00
21728;BME280;11026;50.560;17.852;2022-08-21T01:44:43;99044.25;;;20.46;100.00
21728;BME280;11026;50.560;17.852;2022-08-21T01:47:13;99048.09;;;20.53;100.00
21728;BME280;11026;50.560;17.852;2022-08-21T01:50:09;99045.97;;;20.57;100.00
21728;BME280;11026;50.560;17.852;2022-08-21T01:52:38;99044.69;;;20.61;100.00
21728;BME280;11026;50.560;17.852;2022-08-21T01:55:10;99040.31;;;20.60;100.00
21728;BME280;11026;50.560;17.852;2022-08-21T01:57:38;99049.66;;;20.56;100.00
21728;BME280;11026;50.560;17.852;2022-08-21T02:00:10;99054.75;;;20.59;100.00
21728;BME280;11026;50.560;17.852;2022-08-21T02:02:44;99046.25;;;20.54;100.00
21728;BME280;11026;50.560;17.852;2022-08-21T02:05:13;99053.31;;;20.45;100.00
21728;BME280;11026;50.560;17.852;2022-08-21T02:07:50;99046.53;;;20.51;100.00
21728;BME280;11026;50.560;17.852;2022-08-21T02:10:22;99046.81;;;20.57;100.00
21728;BME280;11026;50.560;17.852;2022-08-21T02:12:50;99058.00;;;20.43;100.00
21728;BME280;11026;50.560;17.852;2022-08-21T02:15:37;99049.78;;;20.54;100.00
21728;BME280;11026;50.560;17.852;2022-08-21T02:18:05;99037.06;;;20.56;100.00
21728;BME280;11026;50.560;17.852;2022-08-21T02:20:43;99034.81;;;20.52;100.00
21728;BME280;11026;50.560;17.852;2022-08-21T02:23:11;99040.31;;;20.50;100.00
21728;BME280;11026;50.560;17.852;2022-08-21T02:25:39;99044.84;;;20.50;100.00
21728;BME280;11026;50.560;17.852;2022-08-21T02:28:10;99035.63;;;20.43;100.00
21728;BME280;11026;50.560;17.852;2022-08-21T02:30:46;99038.31;;;20.43;100.00
21728;BME280;11026;50.560;17.852;2022-08-21T02:33:23;99031.97;;;20.44;100.00
21728;BME280;11026;50.560;17.852;2022-08-21T02:36:18;99012.16;;;20.45;100.00
21728;BME280;11026;50.560;17.852;2022-08-21T02:38:58;99022.78;;;20.36;100.00
21728;BME280;11026;50.560;17.852;2022-08-21T02:41:26;99012.03;;;20.36;100.00
21728;BME280;11026;50.560;17.852;2022-08-21T02:44:09;99021.09;;;20.35;100.00
21728;BME280;11026;50.560;17.852;2022-08-21T02:46:41;99028.16;;;20.36;100.00
21728;BME280;11026;50.560;17.852;2022-08-21T02:49:10;99024.19;;;20.41;100.00
21728;BME280;11026;50.560;17.852;2022-08-21T02:51:38;99007.50;;;20.37;100.00
21728;BME280;11026;50.560;17.852;2022-08-21T02:54:14;99012.47;;;20.32;100.00
21728;BME280;11026;50.560;17.852;2022-08-21T02:56:48;99025.03;;;20.31;100.00
21728;BME280;11026;50.560;17.852;2022-08-21T02:59:16;99032.78;;;20.34;100.00
21728;BME280;11026;50.560;17.852;2022-08-21T03:01:51;99036.06;;;20.28;100.00
21728;BME280;11026;50.560;17.852;2022-08-21T03:04:18;99039.31;;;20.32;100.00
21728;BME280;11026;50.560;17.852;2022-08-21T03:06:47;99021.38;;;20.32;100.00
21728;BME280;11026;50.560;17.852;2022-08-21T03:09:16;99020.78;;;20.38;100.00
21728;BME280;11026;50.560;17.852;2022-08-21T03:11:43;99012.31;;;20.33;100.00
21728;BME280;11026;50.560;17.852;2022-08-21T03:14:18;99008.34;;;20.37;100.00
21728;BME280;11026;50.560;17.852;2022-08-21T03:16:45;99017.53;;;20.35;100.00
21728;BME280;11026;50.560;17.852;2022-08-21T03:19:32;99021.91;;;20.26;100.00
21728;BME280;11026;50.560;17.852;2022-08-21T03:22:00;99018.53;;;20.24;100.00
21728;BME280;11026;50.560;17.852;2022-08-21T03:24:27;99030.69;;;20.28;100.00
21728;BME280;11026;50.560;17.852;2022-08-21T03:27:01;99031.09;;;20.33;100.00
21728;BME280;11026;50.560;17.852;2022-08-21T03:29:39;99025.16;;;20.30;100.00
21728;BME280;11026;50.560;17.852;2022-08-21T03:32:06;99033.78;;;20.33;100.00
21728;BME280;11026;50.560;17.852;2022-08-21T03:34:38;99014.84;;;20.35;100.00
21728;BME280;11026;50.560;17.852;2022-08-21T03:37:09;99014.00;;;20.34;100.00
21728;BME280;11026;50.560;17.852;2022-08-21T03:39:50;99020.78;;;20.29;100.00
21728;BME280;11026;50.560;17.852;2022-08-21T03:42:18;99019.81;;;20.20;100.00
21728;BME280;11026;50.560;17.852;2022-08-21T03:45:21;99010.63;;;20.32;100.00
21728;BME280;11026;50.560;17.852;2022-08-21T03:47:58;99010.88;;;20.39;100.00
21728;BME280;11026;50.560;17.852;2022-08-21T03:50:28;99020.22;;;20.45;100.00
21728;BME280;11026;50.560;17.852;2022-08-21T03:53:05;99025.88;;;20.42;100.00
21728;BME280;11026;50.560;17.852;2022-08-21T03:55:41;99033.25;;;20.39;100.00
21728;BME280;11026;50.560;17.852;2022-08-21T03:58:20;99036.91;;;20.38;100.00
21728;BME280;11026;50.560;17.852;2022-08-21T04:00:49;99022.50;;;20.39;100.00
21728;BME280;11026;50.560;17.852;2022-08-21T04:03:20;99027.31;;;20.36;100.00
21728;BME280;11026;50.560;17.852;2022-08-21T04:05:48;99021.91;;;20.26;100.00
21728;BME280;11026;50.560;17.852;2022-08-21T04:08:17;99009.75;;;20.22;100.00
21728;BME280;11026;50.560;17.852;2022-08-21T04:10:47;99005.66;;;20.18;100.00
21728;BME280;11026;50.560;17.852;2022-08-21T04:13:15;99034.38;;;20.08;100.00
21728;BME280;11026;50.560;17.852;2022-08-21T04:15:43;99042.97;;;20.02;100.00
21728;BME280;11026;50.560;17.852;2022-08-21T04:18:12;99015.97;;;20.03;100.00
21728;BME280;11026;50.560;17.852;2022-08-21T04:20:42;99002.81;;;19.90;100.00
21728;BME280;11026;50.560;17.852;2022-08-21T04:23:31;99021.34;;;19.94;100.00
21728;BME280;11026;50.560;17.852;2022-08-21T04:26:00;99005.19;;;19.74;100.00
21728;BME280;11026;50.560;17.852;2022-08-21T04:28:27;99008.56;;;19.67;100.00
21728;BME280;11026;50.560;17.852;2022-08-21T04:30:57;99011.63;;;19.52;100.00
21728;BME280;11026;50.560;17.852;2022-08-21T04:33:30;99019.25;;;19.57;100.00
21728;BME280;11026;50.560;17.852;2022-08-21T04:35:58;99023.63;;;19.58;100.00
21728;BME280;11026;50.560;17.852;2022-08-21T04:38:27;99028.69;;;19.51;100.00
21728;BME280;11026;50.560;17.852;2022-08-21T04:41:03;99034.47;;;19.47;100.00
21728;BME280;11026;50.560;17.852;2022-08-21T04:43:32;99061.28;;;19.47;100.00
21728;BME280;11026;50.560;17.852;2022-08-21T04:46:01;99076.53;;;19.46;100.00
21728;BME280;11026;50.560;17.852;2022-08-21T04:48:33;99074.34;;;19.30;100.00
21728;BME280;11026;50.560;17.852;2022-08-21T04:51:33;99083.78;;;19.25;100.00
21728;BME280;11026;50.560;17.852;2022-08-21T04:54:14;99084.38;;;19.28;100.00
21728;BME280;11026;50.560;17.852;2022-08-21T04:56:56;99097.94;;;19.06;100.00
21728;BME280;11026;50.560;17.852;2022-08-21T04:59:51;99115.38;;;18.79;100.00
21728;BME280;11026;50.560;17.852;2022-08-21T05:02:26;99146.66;;;18.79;100.00
21728;BME280;11026;50.560;17.852;2022-08-21T05:05:04;99150.13;;;18.58;100.00
21728;BME280;11026;50.560;17.852;2022-08-21T05:16:02;99136.41;;;18.08;100.00
21728;BME280;11026;50.560;17.852;2022-08-21T05:18:31;99105.88;;;18.00;100.00
21728;BME280;11026;50.560;17.852;2022-08-21T05:20:58;99080.59;;;17.81;100.00
21728;BME280;11026;50.560;17.852;2022-08-21T05:23:26;99083.28;;;17.70;100.00
21728;BME280;11026;50.560;17.852;2022-08-21T05:26:03;99095.06;;;17.67;100.00
21728;BME280;11026;50.560;17.852;2022-08-21T05:28:42;99117.59;;;17.87;100.00
21728;BME280;11026;50.560;17.852;2022-08-21T05:31:18;99120.72;;;18.04;100.00
21728;BME280;11026;50.560;17.852;2022-08-21T05:34:18;99130.19;;;18.19;100.00
21728;BME280;11026;50.560;17.852;2022-08-21T05:36:46;99134.06;;;18.26;100.00
21728;BME280;11026;50.560;17.852;2022-08-21T05:39:21;99138.56;;;18.26;100.00
21728;BME280;11026;50.560;17.852;2022-08-21T05:41:56;99127.66;;;18.06;100.00
21728;BME280;11026;50.560;17.852;2022-08-21T05:44:52;99099.91;;;18.07;100.00
21728;BME280;11026;50.560;17.852;2022-08-21T05:50:38;99096.19;;;17.87;100.00
21728;BME280;11026;50.560;17.852;2022-08-21T05:53:07;99104.97;;;17.78;100.00
21728;BME280;11026;50.560;17.852;2022-08-21T05:55:38;99104.09;;;17.78;100.00
21728;BME280;11026;50.560;17.852;2022-08-21T05:58:14;99114.16;;;17.74;100.00
21728;BME280;11026;50.560;17.852;2022-08-21T06:00:47;99135.56;;;17.74;100.00
21728;BME280;11026;50.560;17.852;2022-08-21T06:03:26;99156.22;;;17.72;100.00
21728;BME280;11026;50.560;17.852;2022-08-21T06:05:57;99153.31;;;17.64;100.00
21728;BME280;11026;50.560;17.852;2022-08-21T06:08:32;99140.41;;;17.69;100.00
21728;BME280;11026;50.560;17.852;2022-08-21T06:11:01;99126.31;;;17.67;100.00
21728;BME280;11026;50.560;17.852;2022-08-21T06:13:29;99127.41;;;17.64;100.00
21728;BME280;11026;50.560;17.852;2022-08-21T06:16:09;99133.25;;;17.58;100.00
21728;BME280;11026;50.560;17.852;2022-08-21T06:18:43;99142.00;;;17.72;100.00
21728;BME280;11026;50.560;17.852;2022-08-21T06:21:17;99138.63;;;17.81;100.00
21728;BME280;11026;50.560;17.852;2022-08-21T06:23:46;99141.91;;;17.96;100.00
21728;BME280;11026;50.560;17.852;2022-08-21T06:26:16;99136.91;;;18.02;100.00
21728;BME280;11026;50.560;17.852;2022-08-21T06:28:46;99149.16;;;18.05;100.00
21728;BME280;11026;50.560;17.852;2022-08-21T06:31:18;99148.56;;;18.12;100.00
21728;BME280;11026;50.560;17.852;2022-08-21T06:33:48;99140.53;;;18.01;100.00
21728;BME280;11026;50.560;17.852;2022-08-21T06:36:16;99142.72;;;18.07;100.00
21728;BME280;11026;50.560;17.852;2022-08-21T06:39:00;99146.69;;;18.24;100.00
21728;BME280;11026;50.560;17.852;2022-08-21T06:41:39;99151.06;;;18.25;100.00
21728;BME280;11026;50.560;17.852;2022-08-21T06:44:25;99165.69;;;18.21;100.00
21728;BME280;11026;50.560;17.852;2022-08-21T06:46:53;99182.34;;;18.25;100.00
21728;BME280;11026;50.560;17.852;2022-08-21T06:49:23;99187.59;;;18.26;100.00
21728;BME280;11026;50.560;17.852;2022-08-21T06:51:58;99194.88;;;18.24;100.00
21728;BME280;11026;50.560;17.852;2022-08-21T06:54:25;99201.00;;;18.15;100.00
21728;BME280;11026;50.560;17.852;2022-08-21T06:57:00;99186.59;;;18.38;100.00
21728;BME280;11026;50.560;17.852;2022-08-21T06:59:29;99181.94;;;18.52;100.00
21728;BME280;11026;50.560;17.852;2022-08-21T07:02:00;99183.34;;;18.67;100.00
21728;BME280;11026;50.560;17.852;2022-08-21T07:04:28;99178.63;;;18.59;100.00
21728;BME280;11026;50.560;17.852;2022-08-21T07:07:11;99180.66;;;18.67;100.00
21728;BME280;11026;50.560;17.852;2022-08-21T07:09:39;99174.44;;;18.78;100.00
21728;BME280;11026;50.560;17.852;2022-08-21T07:12:09;99167.31;;;18.88;100.00
21728;BME280;11026;50.560;17.852;2022-08-21T07:14:37;99176.81;;;18.92;100.00
21728;BME280;11026;50.560;17.852;2022-08-21T07:17:12;99178.88;;;18.88;100.00
21728;BME280;11026;50.560;17.852;2022-08-21T07:19:41;99179.78;;;18.89;100.00
21728;BME280;11026;50.560;17.852;2022-08-21T07:22:10;99174.28;;;18.90;100.00
21728;BME280;11026;50.560;17.852;2022-08-21T07:24:39;99173.63;;;18.98;100.00
21728;BME280;11026;50.560;17.852;2022-08-21T07:27:07;99162.06;;;18.98;100.00
21728;BME280;11026;50.560;17.852;2022-08-21T07:29:36;99162.91;;;18.98;100.00
21728;BME280;11026;50.560;17.852;2022-08-21T07:32:04;99171.34;;;18.94;100.00
21728;BME280;11026;50.560;17.852;2022-08-21T07:34:32;99170.09;;;18.98;100.00
21728;BME280;11026;50.560;17.852;2022-08-21T07:36:59;99166.03;;;18.82;100.00
21728;BME280;11026;50.560;17.852;2022-08-21T07:39:36;99159.34;;;18.77;100.00
21728;BME280;11026;50.560;17.852;2022-08-21T07:42:07;99150.84;;;18.72;100.00
21728;BME280;11026;50.560;17.852;2022-08-21T07:44:38;99147.66;;;18.66;100.00
21728;BME280;11026;50.560;17.852;2022-08-21T07:47:14;99149.53;;;18.55;100.00
21728;BME280;11026;50.560;17.852;2022-08-21T07:50:06;99158.81;;;18.51;100.00
21728;BME280;11026;50.560;17.852;2022-08-21T07:52:41;99152.84;;;18.47;100.00
21728;BME280;11026;50.560;17.852;2022-08-21T07:55:13;99159.56;;;18.41;100.00
21728;BME280;11026;50.560;17.852;2022-08-21T07:57:40;99152.25;;;18.43;100.00
21728;BME280;11026;50.560;17.852;2022-08-21T08:00:19;99154.78;;;18.45;100.00
21728;BME280;11026;50.560;17.852;2022-08-21T08:02:51;99158.69;;;18.41;100.00
21728;BME280;11026;50.560;17.852;2022-08-21T08:05:22;99161.28;;;18.42;100.00
21728;BME280;11026;50.560;17.852;2022-08-21T08:07:53;99169.75;;;18.48;100.00
21728;BME280;11026;50.560;17.852;2022-08-21T08:10:29;99170.53;;;18.38;100.00
21728;BME280;11026;50.560;17.852;2022-08-21T08:12:57;99170.41;;;18.40;100.00
21728;BME280;11026;50.560;17.852;2022-08-21T08:15:26;99170.00;;;18.44;100.00
21728;BME280;11026;50.560;17.852;2022-08-21T08:17:55;99170.00;;;18.44;100.00
21728;BME280;11026;50.560;17.852;2022-08-21T08:20:24;99174.75;;;18.41;100.00
21728;BME280;11026;50.560;17.852;2022-08-21T08:22:56;99190.25;;;18.37;100.00
21728;BME280;11026;50.560;17.852;2022-08-21T08:25:25;99193.66;;;18.39;100.00
21728;BME280;11026;50.560;17.852;2022-08-21T08:28:02;99190.50;;;18.34;100.00
21728;BME280;11026;50.560;17.852;2022-08-21T08:30:45;99194.28;;;18.21;100.00
21728;BME280;11026;50.560;17.852;2022-08-21T08:33:14;99198.69;;;18.22;100.00
21728;BME280;11026;50.560;17.852;2022-08-21T08:35:48;99191.97;;;18.16;100.00
21728;BME280;11026;50.560;17.852;2022-08-21T08:38:18;99190.53;;;18.12;100.00
21728;BME280;11026;50.560;17.852;2022-08-21T08:43:37;99192.50;;;18.10;100.00
21728;BME280;11026;50.560;17.852;2022-08-21T08:46:13;99195.16;;;18.10;100.00
21728;BME280;11026;50.560;17.852;2022-08-21T08:48:52;99194.44;;;18.08;100.00
21728;BME280;11026;50.560;17.852;2022-08-21T08:51:29;99190.78;;;18.09;100.00
21728;BME280;11026;50.560;17.852;2022-08-21T08:54:07;99195.41;;;17.96;100.00
21728;BME280;11026;50.560;17.852;2022-08-21T08:56:40;99205.13;;;17.97;100.00
21728;BME280;11026;50.560;17.852;2022-08-21T08:59:15;99221.69;;;17.79;100.00
21728;BME280;11026;50.560;17.852;2022-08-21T09:01:43;99210.22;;;17.66;100.00
21728;BME280;11026;50.560;17.852;2022-08-21T09:04:20;99215.78;;;17.52;100.00
21728;BME280;11026;50.560;17.852;2022-08-21T09:09:55;99217.72;;;17.38;100.00
21728;BME280;11026;50.560;17.852;2022-08-21T09:20:47;99208.75;;;16.80;100.00
21728;BME280;11026;50.560;17.852;2022-08-21T09:23:41;99205.25;;;16.80;100.00
21728;BME280;11026;50.560;17.852;2022-08-21T09:29:31;99205.97;;;16.82;100.00
21728;BME280;11026;50.560;17.852;2022-08-21T09:32:00;99198.81;;;16.82;100.00
21728;BME280;11026;50.560;17.852;2022-08-21T09:34:30;99204.41;;;16.79;100.00
21728;BME280;11026;50.560;17.852;2022-08-21T09:37:03;99216.16;;;16.77;100.00
21728;BME280;11026;50.560;17.852;2022-08-21T09:39:39;99201.19;;;16.74;100.00
21728;BME280;11026;50.560;17.852;2022-08-21T09:42:22;99193.19;;;16.74;100.00
21728;BME280;11026;50.560;17.852;2022-08-21T09:45:06;99193.28;;;16.72;100.00
21728;BME280;11026;50.560;17.852;2022-08-21T09:47:34;99193.72;;;16.79;100.00
21728;BME280;11026;50.560;17.852;2022-08-21T09:50:11;99197.59;;;16.86;100.00
21728;BME280;11026;50.560;17.852;2022-08-21T09:52:58;99177.69;;;16.79;100.00
21728;BME280;11026;50.560;17.852;2022-08-21T09:55:46;99180.97;;;16.83;100.00
21728;BME280;11026;50.560;17.852;2022-08-21T09:58:42;99186.91;;;16.75;100.00
21728;BME280;11026;50.560;17.852;2022-08-21T10:01:23;99204.84;;;16.73;100.00
21728;BME280;11026;50.560;17.852;2022-08-21T10:04:12;99203.88;;;16.74;100.00
21728;BME280;11026;50.560;17.852;2022-08-21T10:06:42;99197.50;;;16.88;100.00
21728;BME280;11026;50.560;17.852;2022-08-21T10:09:26;99211.22;;;16.83;100.00
21728;BME280;11026;50.560;17.852;2022-08-21T10:11:58;99212.78;;;16.86;100.00
21728;BME280;11026;50.560;17.852;2022-08-21T10:17:54;99231.53;;;16.73;100.00
21728;BME280;11026;50.560;17.852;2022-08-21T10:21:08;99224.91;;;16.66;100.00
21728;BME280;11026;50.560;17.852;2022-08-21T10:23:53;99229.63;;;16.62;100.00
21728;BME280;11026;50.560;17.852;2022-08-21T10:26:35;99220.44;;;16.66;100.00
21728;BME280;11026;50.560;17.852;2022-08-21T10:35:27;99248.06;;;16.78;100.00
21728;BME280;11026;50.560;17.852;2022-08-21T10:38:17;99250.66;;;16.80;100.00
21728;BME280;11026;50.560;17.852;2022-08-21T10:55:48;99272.81;;;16.93;100.00
21728;BME280;11026;50.560;17.852;2022-08-21T10:58:28;99274.97;;;16.88;100.00
21728;BME280;11026;50.560;17.852;2022-08-21T11:01:04;99274.47;;;16.83;100.00
21728;BME280;11026;50.560;17.852;2022-08-21T11:03:41;99275.97;;;16.74;100.00
21728;BME280;11026;50.560;17.852;2022-08-21T11:06:28;99276.41;;;16.68;100.00
21728;BME280;11026;50.560;17.852;2022-08-21T11:09:12;99280.63;;;16.59;100.00
21728;BME280;11026;50.560;17.852;2022-08-21T11:12:44;99282.88;;;16.53;100.00
21728;BME280;11026;50.560;17.852;2022-08-21T11:15:00;99288.84;;;16.56;100.00
21728;BME280;11026;50.560;17.852;2022-08-21T11:17:47;99286.81;;;16.60;100.00
21728;BME280;11026;50.560;17.852;2022-08-21T11:20:44;99291.00;;;16.38;100.00
21728;BME280;11026;50.560;17.852;2022-08-21T11:26:54;99287.31;;;16.28;100.00
21728;BME280;11026;50.560;17.852;2022-08-21T11:29:37;99295.94;;;16.19;100.00
21728;BME280;11026;50.560;17.852;2022-08-21T11:41:29;99290.31;;;16.23;100.00
21728;BME280;11026;50.560;17.852;2022-08-21T11:52:36;99287.31;;;16.03;100.00
21728;BME280;11026;50.560;17.852;2022-08-21T11:55:31;99281.91;;;16.04;100.00
21728;BME280;11026;50.560;17.852;2022-08-21T11:58:23;99286.69;;;15.99;100.00
21728;BME280;11026;50.560;17.852;2022-08-21T12:01:03;99290.00;;;15.90;100.00
21728;BME280;11026;50.560;17.852;2022-08-21T12:03:39;99298.66;;;15.93;100.00
21728;BME280;11026;50.560;17.852;2022-08-21T12:06:13;99290.44;;;15.96;100.00
21728;BME280;11026;50.560;17.852;2022-08-21T12:08:58;99293.63;;;16.02;100.00
21728;BME280;11026;50.560;17.852;2022-08-21T12:11:49;99292.56;;;16.04;100.00
21728;BME280;11026;50.560;17.852;2022-08-21T12:14:20;99300.25;;;16.09;100.00
21728;BME280;11026;50.560;17.852;2022-08-21T12:16:49;99302.78;;;16.10;100.00
21728;BME280;11026;50.560;17.852;2022-08-21T12:22:12;99298.75;;;15.92;100.00
21728;BME280;11026;50.560;17.852;2022-08-21T12:27:30;99298.66;;;15.93;100.00
21728;BME280;11026;50.560;17.852;2022-08-21T12:32:59;99298.00;;;15.90;100.00
21728;BME280;11026;50.560;17.852;2022-08-21T12:35:43;99298.53;;;15.95;100.00
21728;BME280;11026;50.560;17.852;2022-08-21T12:38:47;99285.19;;;15.95;100.00
21728;BME280;11026;50.560;17.852;2022-08-21T12:47:48;99283.81;;;16.02;100.00
21728;BME280;11026;50.560;17.852;2022-08-21T12:50:35;99285.41;;;16.05;100.00
21728;BME280;11026;50.560;17.852;2022-08-21T12:55:47;99285.72;;;16.13;100.00
21728;BME280;11026;50.560;17.852;2022-08-21T12:58:24;99285.06;;;16.22;100.00
21728;BME280;11026;50.560;17.852;2022-08-21T13:03:47;99275.88;;;16.26;100.00
21728;BME280;11026;50.560;17.852;2022-08-21T13:06:42;99290.16;;;16.38;100.00
21728;BME280;11026;50.560;17.852;2022-08-21T13:09:15;99288.47;;;16.24;100.00
21728;BME280;11026;50.560;17.852;2022-08-21T13:11:47;99280.81;;;16.19;100.00
21728;BME280;11026;50.560;17.852;2022-08-21T13:14:36;99277.81;;;16.24;100.00
21728;BME280;11026;50.560;17.852;2022-08-21T13:17:19;99267.88;;;16.26;100.00
21728;BME280;11026;50.560;17.852;2022-08-21T13:20:21;99274.47;;;16.33;100.00
21728;BME280;11026;50.560;17.852;2022-08-21T13:22:50;99269.66;;;16.38;100.00
21728;BME280;11026;50.560;17.852;2022-08-21T13:25:21;99275.00;;;16.38;100.00
21728;BME280;11026;50.560;17.852;2022-08-21T13:28:09;99277.44;;;16.41;100.00
21728;BME280;11026;50.560;17.852;2022-08-21T13:30:49;99278.00;;;16.34;100.00
21728;BME280;11026;50.560;17.852;2022-08-21T13:33:25;99286.09;;;16.45;100.00
21728;BME280;11026;50.560;17.852;2022-08-21T13:36:21;99285.66;;;16.38;100.00
21728;BME280;11026;50.560;17.852;2022-08-21T13:38:51;99285.44;;;16.41;100.00
21728;BME280;11026;50.560;17.852;2022-08-21T13:43:57;99296.13;;;16.41;100.00
21728;BME280;11026;50.560;17.852;2022-08-21T13:46:35;99294.22;;;16.43;100.00
21728;BME280;11026;50.560;17.852;2022-08-21T13:49:05;99301.25;;;16.44;100.00
21728;BME280;11026;50.560;17.852;2022-08-21T13:51:36;99308.09;;;16.48;100.00
21728;BME280;11026;50.560;17.852;2022-08-21T13:54:32;99307.63;;;16.55;100.00
21728;BME280;11026;50.560;17.852;2022-08-21T13:57:00;99303.75;;;16.59;100.00
21728;BME280;11026;50.560;17.852;2022-08-21T13:59:34;99287.31;;;16.65;100.00
21728;BME280;11026;50.560;17.852;2022-08-21T14:02:16;99304.66;;;16.59;100.00
21728;BME280;11026;50.560;17.852;2022-08-21T14:05:00;99304.84;;;16.56;100.00
21728;BME280;11026;50.560;17.852;2022-08-21T14:07:35;99317.56;;;16.53;100.00
21728;BME280;11026;50.560;17.852;2022-08-21T14:10:11;99320.75;;;16.58;100.00
21728;BME280;11026;50.560;17.852;2022-08-21T14:13:06;99318.31;;;16.55;100.00
21728;BME280;11026;50.560;17.852;2022-08-21T14:15:35;99318.22;;;16.56;100.00
21728;BME280;11026;50.560;17.852;2022-08-21T14:18:14;99315.19;;;16.61;100.00
21728;BME280;11026;50.560;17.852;2022-08-21T14:20:43;99313.84;;;16.55;100.00
21728;BME280;11026;50.560;17.852;2022-08-21T14:23:24;99319.28;;;16.54;100.00
21728;BME280;11026;50.560;17.852;2022-08-21T14:25:52;99307.78;;;16.40;100.00
21728;BME280;11026;50.560;17.852;2022-08-21T14:31:17;99308.75;;;16.39;100.00
21728;BME280;11026;50.560;17.852;2022-08-21T14:33:46;99316.63;;;16.41;100.00
21728;BME280;11026;50.560;17.852;2022-08-21T14:36:15;99306.81;;;16.41;100.00
21728;BME280;11026;50.560;17.852;2022-08-21T14:38:48;99306.94;;;16.40;100.00
21728;BME280;11026;50.560;17.852;2022-08-21T14:41:19;99316.63;;;16.41;100.00
21728;BME280;11026;50.560;17.852;2022-08-21T14:43:52;99307.44;;;16.45;100.00
21728;BME280;11026;50.560;17.852;2022-08-21T14:46:36;99314.09;;;16.39;100.00
21728;BME280;11026;50.560;17.852;2022-08-21T14:49:28;99314.50;;;16.33;100.00
21728;BME280;11026;50.560;17.852;2022-08-21T14:51:58;99316.41;;;16.31;100.00
21728;BME280;11026;50.560;17.852;2022-08-21T14:54:30;99321.16;;;16.28;100.00
21728;BME280;11026;50.560;17.852;2022-08-21T14:57:04;99323.38;;;16.34;100.00
21728;BME280;11026;50.560;17.852;2022-08-21T14:59:37;99317.50;;;16.29;100.00
21728;BME280;11026;50.560;17.852;2022-08-21T15:02:07;99300.66;;;16.28;100.00
21728;BME280;11026;50.560;17.852;2022-08-21T15:04:35;99319.41;;;16.27;100.00